sensor_id;sensor_type;location;lat;lon;timestamp;P1;durP1;ratioP1;P2;durP2;ratioP2
26253;SDS011;53339;51.378;0.094;2023-05-20T00:00:18;14.50;;;5.53;;
26253;SDS011;53339;51.378;0.094;2023-05-20T00:02:50;13.40;;;5.32;;
26253;SDS011;53339;51.378;0.094;2023-05-20T00:05:18;15.77;;;5.70;;
26253;SDS011;53339;51.378;0.094;2023-05-20T00:07:46;14.68;;;6.43;;
26253;SDS011;53339;51.378;0.094;2023-05-20T00:10:14;11.32;;;4.97;;
26253;SDS011;53339;51.378;0.094;2023-05-20T00:12:45;12.95;;;5.72;;
26253;SDS011;53339;51.378;0.094;2023-05-20T00:15:18;11.27;;;5.32;;
26253;SDS011;53339;51.378;0.094;2023-05-20T00:17:46;11.88;;;4.95;;
26253;SDS011;53339;51.378;0.094;2023-05-20T00:20:23;17.17;;;5.60;;
26253;SDS011;53339;51.378;0.094;2023-05-20T00:22:55;13.15;;;5.10;;
26253;SDS011;53339;51.378;0.094;2023-05-20T00:25:23;9.73;;;4.68;;
26253;SDS011;53339;51.378;0.094;2023-05-20T00:27:51;12.60;;;5.00;;
26253;SDS011;53339;51.378;0.094;2023-05-20T00:30:27;13.50;;;5.07;;
26253;SDS011;53339;51.378;0.094;2023-05-20T00:33:01;13.93;;;5.60;;
26253;SDS011;53339;51.378;0.094;2023-05-20T00:35:29;11.15;;;5.03;;
26253;SDS011;53339;51.378;0.094;2023-05-20T00:37:56;13.10;;;5.63;;
26253;SDS011;53339;51.378;0.094;2023-05-20T00:40:24;11.00;;;4.70;;
26253;SDS011;53339;51.378;0.094;2023-05-20T00:42:52;10.40;;;5.78;;
26253;SDS011;53339;51.378;0.094;2023-05-20T00:45:29;11.18;;;5.28;;
26253;SDS011;53339;51.378;0.094;2023-05-20T00:48:05;12.32;;;5.13;;
26253;SDS011;53339;51.378;0.094;2023-05-20T00:50:40;12.38;;;4.68;;
26253;SDS011;53339;51.378;0.094;2023-05-20T00:53:08;13.60;;;5.88;;
26253;SDS011;53339;51.378;0.094;2023-05-20T00:55:36;12.45;;;5.15;;
26253;SDS011;53339;51.378;0.094;2023-05-20T00:58:04;11.63;;;5.80;;
26253;SDS011;53339;51.378;0.094;2023-05-20T01:00:32;13.25;;;6.07;;
26253;SDS011;53339;51.378;0.094;2023-05-20T01:03:06;12.77;;;5.65;;
26253;SDS011;53339;51.378;0.094;2023-05-20T01:05:38;13.63;;;4.97;;
26253;SDS011;53339;51.378;0.094;2023-05-20T01:08:09;14.45;;;5.82;;
26253;SDS011;53339;51.378;0.094;2023-05-20T01:10:40;16.85;;;5.43;;
26253;SDS011;53339;51.378;0.094;2023-05-20T01:13:14;10.45;;;4.70;;
26253;SDS011;53339;51.378;0.094;2023-05-20T01:15:57;14.52;;;6.00;;
26253;SDS011;53339;51.378;0.094;2023-05-20T01:18:30;14.68;;;6.85;;
26253;SDS011;53339;51.378;0.094;2023-05-20T01:21:03;13.35;;;5.85;;
26253;SDS011;53339;51.378;0.094;2023-05-20T01:23:39;15.20;;;5.95;;
26253;SDS011;53339;51.378;0.094;2023-05-20T01:26:08;13.95;;;6.70;;
26253;SDS011;53339;51.378;0.094;2023-05-20T01:28:47;12.38;;;5.68;;
26253;SDS011;53339;51.378;0.094;2023-05-20T01:31:22;11.75;;;5.10;;
26253;SDS011;53339;51.378;0.094;2023-05-20T01:33:53;17.77;;;6.32;;
26253;SDS011;53339;51.378;0.094;2023-05-20T01:36:25;12.88;;;5.63;;
26253;SDS011;53339;51.378;0.094;2023-05-20T01:38:53;11.50;;;5.93;;
26253;SDS011;53339;51.378;0.094;2023-05-20T01:41:26;13.93;;;5.63;;
26253;SDS011;53339;51.378;0.094;2023-05-20T01:43:55;13.98;;;6.10;;
26253;SDS011;53339;51.378;0.094;2023-05-20T01:46:23;13.95;;;5.35;;
26253;SDS011;53339;51.378;0.094;2023-05-20T01:48:51;13.85;;;5.60;;
26253;SDS011;53339;51.378;0.094;2023-05-20T01:51:19;11.10;;;5.53;;
26253;SDS011;53339;51.378;0.094;2023-05-20T01:53:46;14.15;;;5.30;;
26253;SDS011;53339;51.378;0.094;2023-05-20T01:56:22;12.85;;;5.25;;
26253;SDS011;53339;51.378;0.094;2023-05-20T01:58:50;13.32;;;4.88;;
26253;SDS011;53339;51.378;0.094;2023-05-20T02:01:18;11.73;;;4.55;;
26253;SDS011;53339;51.378;0.094;2023-05-20T02:03:50;16.60;;;5.18;;
26253;SDS011;53339;51.378;0.094;2023-05-20T02:06:20;10.02;;;5.15;;
26253;SDS011;53339;51.378;0.094;2023-05-20T02:08:49;14.52;;;5.00;;
26253;SDS011;53339;51.378;0.094;2023-05-20T02:13:45;13.38;;;4.65;;
26253;SDS011;53339;51.378;0.094;2023-05-20T02:16:13;16.42;;;5.35;;
26253;SDS011;53339;51.378;0.094;2023-05-20T02:18:53;13.88;;;5.07;;
26253;SDS011;53339;51.378;0.094;2023-05-20T02:21:21;13.02;;;4.97;;
26253;SDS011;53339;51.378;0.094;2023-05-20T02:23:49;13.55;;;6.00;;
26253;SDS011;53339;51.378;0.094;2023-05-20T02:26:21;10.52;;;5.22;;
26253;SDS011;53339;51.378;0.094;2023-05-20T02:28:51;15.60;;;5.85;;
26253;SDS011;53339;51.378;0.094;2023-05-20T02:31:20;13.60;;;4.65;;
26253;SDS011;53339;51.378;0.094;2023-05-20T02:33:52;16.83;;;5.45;;
26253;SDS011;53339;51.378;0.094;2023-05-20T02:36:27;12.95;;;5.70;;
26253;SDS011;53339;51.378;0.094;2023-05-20T02:38:55;19.63;;;5.00;;
26253;SDS011;53339;51.378;0.094;2023-05-20T02:41:22;12.82;;;5.50;;
26253;SDS011;53339;51.378;0.094;2023-05-20T02:43:52;13.90;;;4.93;;
26253;SDS011;53339;51.378;0.094;2023-05-20T02:46:20;18.08;;;5.80;;
26253;SDS011;53339;51.378;0.094;2023-05-20T02:48:48;15.43;;;5.22;;
26253;SDS011;53339;51.378;0.094;2023-05-20T02:51:16;12.35;;;5.35;;
26253;SDS011;53339;51.378;0.094;2023-05-20T02:53:45;11.73;;;6.05;;
26253;SDS011;53339;51.378;0.094;2023-05-20T02:56:15;10.98;;;5.20;;
26253;SDS011;53339;51.378;0.094;2023-05-20T02:58:42;12.32;;;4.97;;
26253;SDS011;53339;51.378;0.094;2023-05-20T03:01:10;12.68;;;4.78;;
26253;SDS011;53339;51.378;0.094;2023-05-20T03:03:38;17.88;;;6.22;;
26253;SDS011;53339;51.378;0.094;2023-05-20T03:06:06;13.43;;;5.55;;
26253;SDS011;53339;51.378;0.094;2023-05-20T03:08:37;14.63;;;5.35;;
26253;SDS011;53339;51.378;0.094;2023-05-20T03:11:05;13.65;;;5.93;;
26253;SDS011;53339;51.378;0.094;2023-05-20T03:13:33;16.27;;;5.60;;
26253;SDS011;53339;51.378;0.094;2023-05-20T03:16:01;11.93;;;5.32;;
26253;SDS011;53339;51.378;0.094;2023-05-20T03:18:29;15.73;;;5.85;;
26253;SDS011;53339;51.378;0.094;2023-05-20T03:20:58;16.63;;;6.70;;
26253;SDS011;53339;51.378;0.094;2023-05-20T03:23:29;13.40;;;5.68;;
26253;SDS011;53339;51.378;0.094;2023-05-20T03:25:57;12.35;;;5.63;;
26253;SDS011;53339;51.378;0.094;2023-05-20T03:28:37;14.57;;;5.43;;
26253;SDS011;53339;51.378;0.094;2023-05-20T03:31:10;19.20;;;5.47;;
26253;SDS011;53339;51.378;0.094;2023-05-20T03:33:40;11.82;;;5.10;;
26253;SDS011;53339;51.378;0.094;2023-05-20T03:36:07;13.18;;;6.68;;
26253;SDS011;53339;51.378;0.094;2023-05-20T03:38:36;13.57;;;5.40;;
26253;SDS011;53339;51.378;0.094;2023-05-20T03:41:04;13.63;;;6.22;;
26253;SDS011;53339;51.378;0.094;2023-05-20T03:43:36;15.30;;;5.50;;
26253;SDS011;53339;51.378;0.094;2023-05-20T03:46:05;14.50;;;6.45;;
26253;SDS011;53339;51.378;0.094;2023-05-20T03:48:35;14.15;;;6.10;;
26253;SDS011;53339;51.378;0.094;2023-05-20T03:51:11;20.02;;;6.22;;
26253;SDS011;53339;51.378;0.094;2023-05-20T03:53:39;16.02;;;6.28;;
26253;SDS011;53339;51.378;0.094;2023-05-20T03:56:08;14.38;;;5.68;;
26253;SDS011;53339;51.378;0.094;2023-05-20T03:58:38;16.92;;;6.80;;
26253;SDS011;53339;51.378;0.094;2023-05-20T04:01:09;20.27;;;6.32;;
26253;SDS011;53339;51.378;0.094;2023-05-20T04:03:43;19.50;;;6.85;;
26253;SDS011;53339;51.378;0.094;2023-05-20T04:06:12;16.75;;;6.35;;
26253;SDS011;53339;51.378;0.094;2023-05-20T04:08:46;13.57;;;6.30;;
26253;SDS011;53339;51.378;0.094;2023-05-20T04:11:22;14.68;;;6.10;;
26253;SDS011;53339;51.378;0.094;2023-05-20T04:13:51;20.55;;;7.15;;
26253;SDS011;53339;51.378;0.094;2023-05-20T04:16:20;14.80;;;7.40;;
26253;SDS011;53339;51.378;0.094;2023-05-20T04:18:48;17.88;;;6.07;;
26253;SDS011;53339;51.378;0.094;2023-05-20T04:21:18;16.52;;;6.88;;
26253;SDS011;53339;51.378;0.094;2023-05-20T04:23:47;15.27;;;7.22;;
26253;SDS011;53339;51.378;0.094;2023-05-20T04:26:18;15.30;;;6.75;;
26253;SDS011;53339;51.378;0.094;2023-05-20T04:28:49;17.23;;;7.78;;
26253;SDS011;53339;51.378;0.094;2023-05-20T04:31:20;16.58;;;7.75;;
26253;SDS011;53339;51.378;0.094;2023-05-20T04:33:54;18.48;;;6.93;;
26253;SDS011;53339;51.378;0.094;2023-05-20T04:36:29;17.08;;;6.80;;
26253;SDS011;53339;51.378;0.094;2023-05-20T04:39:23;15.70;;;6.85;;
26253;SDS011;53339;51.378;0.094;2023-05-20T04:41:58;15.48;;;7.55;;
26253;SDS011;53339;51.378;0.094;2023-05-20T04:44:29;19.33;;;6.35;;
26253;SDS011;53339;51.378;0.094;2023-05-20T04:46:59;21.58;;;7.75;;
26253;SDS011;53339;51.378;0.094;2023-05-20T04:49:28;17.60;;;6.88;;
26253;SDS011;53339;51.378;0.094;2023-05-20T04:52:00;18.65;;;7.43;;
26253;SDS011;53339;51.378;0.094;2023-05-20T04:54:29;17.75;;;6.72;;
26253;SDS011;53339;51.378;0.094;2023-05-20T04:57:00;18.23;;;6.80;;
26253;SDS011;53339;51.378;0.094;2023-05-20T04:59:30;16.55;;;7.05;;
26253;SDS011;53339;51.378;0.094;2023-05-20T05:01:58;17.13;;;7.05;;
26253;SDS011;53339;51.378;0.094;2023-05-20T05:04:26;16.33;;;7.38;;
26253;SDS011;53339;51.378;0.094;2023-05-20T05:06:53;16.85;;;6.93;;
26253;SDS011;53339;51.378;0.094;2023-05-20T05:09:24;16.80;;;6.88;;
26253;SDS011;53339;51.378;0.094;2023-05-20T05:11:54;17.70;;;6.93;;
26253;SDS011;53339;51.378;0.094;2023-05-20T05:14:22;20.05;;;6.88;;
26253;SDS011;53339;51.378;0.094;2023-05-20T05:16:50;18.50;;;7.18;;
26253;SDS011;53339;51.378;0.094;2023-05-20T05:19:26;17.02;;;6.93;;
26253;SDS011;53339;51.378;0.094;2023-05-20T05:22:00;18.38;;;7.25;;
26253;SDS011;53339;51.378;0.094;2023-05-20T05:24:29;18.05;;;7.43;;
26253;SDS011;53339;51.378;0.094;2023-05-20T05:26:59;16.63;;;7.55;;
26253;SDS011;53339;51.378;0.094;2023-05-20T05:29:28;19.08;;;8.63;;
26253;SDS011;53339;51.378;0.094;2023-05-20T05:31:56;16.73;;;8.00;;
26253;SDS011;53339;51.378;0.094;2023-05-20T05:34:24;20.23;;;7.57;;
26253;SDS011;53339;51.378;0.094;2023-05-20T05:36:51;20.85;;;7.63;;
26253;SDS011;53339;51.378;0.094;2023-05-20T05:39:20;18.00;;;6.85;;
26253;SDS011;53339;51.378;0.094;2023-05-20T05:41:48;16.17;;;6.90;;
26253;SDS011;53339;51.378;0.094;2023-05-20T05:44:18;18.20;;;6.85;;
26253;SDS011;53339;51.378;0.094;2023-05-20T05:46:45;16.83;;;7.43;;
26253;SDS011;53339;51.378;0.094;2023-05-20T05:49:13;16.38;;;6.78;;
26253;SDS011;53339;51.378;0.094;2023-05-20T05:51:41;18.58;;;7.72;;
26253;SDS011;53339;51.378;0.094;2023-05-20T05:54:08;16.80;;;7.43;;
26253;SDS011;53339;51.378;0.094;2023-05-20T05:56:36;16.83;;;6.93;;
26253;SDS011;53339;51.378;0.094;2023-05-20T05:59:04;16.63;;;7.03;;
26253;SDS011;53339;51.378;0.094;2023-05-20T06:01:35;17.42;;;7.45;;
26253;SDS011;53339;51.378;0.094;2023-05-20T06:04:08;19.25;;;7.65;;
26253;SDS011;53339;51.378;0.094;2023-05-20T06:06:38;20.85;;;7.45;;
26253;SDS011;53339;51.378;0.094;2023-05-20T06:09:07;16.80;;;7.05;;
26253;SDS011;53339;51.378;0.094;2023-05-20T06:11:37;17.23;;;6.93;;
26253;SDS011;53339;51.378;0.094;2023-05-20T06:14:11;15.93;;;7.20;;
26253;SDS011;53339;51.378;0.094;2023-05-20T06:16:40;15.95;;;6.72;;
26253;SDS011;53339;51.378;0.094;2023-05-20T06:19:08;17.48;;;7.22;;
26253;SDS011;53339;51.378;0.094;2023-05-20T06:21:37;24.77;;;7.57;;
26253;SDS011;53339;51.378;0.094;2023-05-20T06:24:12;20.52;;;7.97;;
26253;SDS011;53339;51.378;0.094;2023-05-20T06:26:40;15.80;;;7.05;;
26253;SDS011;53339;51.378;0.094;2023-05-20T06:29:09;19.75;;;7.38;;
26253;SDS011;53339;51.378;0.094;2023-05-20T06:31:37;17.42;;;7.72;;
26253;SDS011;53339;51.378;0.094;2023-05-20T06:34:08;18.58;;;7.65;;
26253;SDS011;53339;51.378;0.094;2023-05-20T06:36:37;16.45;;;6.88;;
26253;SDS011;53339;51.378;0.094;2023-05-20T06:39:07;18.08;;;8.60;;
26253;SDS011;53339;51.378;0.094;2023-05-20T06:41:40;14.68;;;7.35;;
26253;SDS011;53339;51.378;0.094;2023-05-20T06:44:27;19.77;;;7.40;;
26253;SDS011;53339;51.378;0.094;2023-05-20T06:47:01;17.88;;;6.75;;
26253;SDS011;53339;51.378;0.094;2023-05-20T06:49:32;19.90;;;7.50;;
26253;SDS011;53339;51.378;0.094;2023-05-20T06:51:59;18.15;;;7.75;;
26253;SDS011;53339;51.378;0.094;2023-05-20T06:54:28;13.82;;;6.38;;
26253;SDS011;53339;51.378;0.094;2023-05-20T06:56:57;17.00;;;6.85;;
26253;SDS011;53339;51.378;0.094;2023-05-20T06:59:29;20.13;;;7.45;;
26253;SDS011;53339;51.378;0.094;2023-05-20T07:01:58;16.98;;;6.60;;
26253;SDS011;53339;51.378;0.094;2023-05-20T07:04:26;14.35;;;6.55;;
26253;SDS011;53339;51.378;0.094;2023-05-20T07:06:57;15.68;;;6.75;;
26253;SDS011;53339;51.378;0.094;2023-05-20T07:09:25;14.75;;;7.03;;
26253;SDS011;53339;51.378;0.094;2023-05-20T07:11:57;14.98;;;6.95;;
26253;SDS011;53339;51.378;0.094;2023-05-20T07:14:29;18.17;;;7.22;;
26253;SDS011;53339;51.378;0.094;2023-05-20T07:16:57;15.73;;;6.57;;
26253;SDS011;53339;51.378;0.094;2023-05-20T07:19:29;12.50;;;5.72;;
26253;SDS011;53339;51.378;0.094;2023-05-20T07:21:57;14.63;;;6.97;;
26253;SDS011;53339;51.378;0.094;2023-05-20T07:24:55;13.30;;;7.53;;
26253;SDS011;53339;51.378;0.094;2023-05-20T07:27:23;18.13;;;6.65;;
26253;SDS011;53339;51.378;0.094;2023-05-20T07:29:54;16.50;;;6.50;;
26253;SDS011;53339;51.378;0.094;2023-05-20T07:32:40;15.63;;;6.30;;
26253;SDS011;53339;51.378;0.094;2023-05-20T07:35:08;21.38;;;6.70;;
26253;SDS011;53339;51.378;0.094;2023-05-20T07:37:40;18.20;;;6.40;;
26253;SDS011;53339;51.378;0.094;2023-05-20T07:40:12;18.08;;;6.55;;
26253;SDS011;53339;51.378;0.094;2023-05-20T07:42:41;15.85;;;7.03;;
26253;SDS011;53339;51.378;0.094;2023-05-20T07:45:10;12.98;;;6.43;;
26253;SDS011;53339;51.378;0.094;2023-05-20T07:47:38;16.25;;;7.00;;
26253;SDS011;53339;51.378;0.094;2023-05-20T07:50:07;14.48;;;6.90;;
26253;SDS011;53339;51.378;0.094;2023-05-20T07:52:36;14.82;;;6.65;;
26253;SDS011;53339;51.378;0.094;2023-05-20T07:55:21;14.43;;;7.03;;
26253;SDS011;53339;51.378;0.094;2023-05-20T07:57:52;17.10;;;6.82;;
26253;SDS011;53339;51.378;0.094;2023-05-20T08:00:28;18.30;;;6.30;;
26253;SDS011;53339;51.378;0.094;2023-05-20T08:03:08;20.92;;;7.18;;
26253;SDS011;53339;51.378;0.094;2023-05-20T08:05:55;14.38;;;6.70;;
26253;SDS011;53339;51.378;0.094;2023-05-20T08:08:24;20.77;;;8.60;;
26253;SDS011;53339;51.378;0.094;2023-05-20T08:11:00;15.48;;;6.38;;
26253;SDS011;53339;51.378;0.094;2023-05-20T08:13:31;16.92;;;7.53;;
26253;SDS011;53339;51.378;0.094;2023-05-20T08:16:03;16.42;;;7.40;;
26253;SDS011;53339;51.378;0.094;2023-05-20T08:18:33;16.58;;;6.75;;
26253;SDS011;53339;51.378;0.094;2023-05-20T08:21:04;19.27;;;7.90;;
26253;SDS011;53339;51.378;0.094;2023-05-20T08:23:36;12.23;;;6.78;;
26253;SDS011;53339;51.378;0.094;2023-05-20T08:26:11;17.25;;;7.05;;
26253;SDS011;53339;51.378;0.094;2023-05-20T08:28:41;11.02;;;6.05;;
26253;SDS011;53339;51.378;0.094;2023-05-20T08:31:09;14.80;;;6.85;;
26253;SDS011;53339;51.378;0.094;2023-05-20T08:33:37;15.07;;;6.32;;
26253;SDS011;53339;51.378;0.094;2023-05-20T08:36:08;13.32;;;6.55;;
26253;SDS011;53339;51.378;0.094;2023-05-20T08:38:39;18.08;;;6.93;;
26253;SDS011;53339;51.378;0.094;2023-05-20T08:41:10;16.23;;;6.28;;
26253;SDS011;53339;51.378;0.094;2023-05-20T08:43:40;15.20;;;6.30;;
26253;SDS011;53339;51.378;0.094;2023-05-20T08:46:11;15.02;;;6.00;;
26253;SDS011;53339;51.378;0.094;2023-05-20T08:48:43;12.50;;;5.95;;
26253;SDS011;53339;51.378;0.094;2023-05-20T08:53:43;9.82;;;5.22;;
26253;SDS011;53339;51.378;0.094;2023-05-20T08:56:11;9.90;;;4.78;;
26253;SDS011;53339;51.378;0.094;2023-05-20T08:58:39;11.32;;;4.35;;
26253;SDS011;53339;51.378;0.094;2023-05-20T09:01:16;9.55;;;4.68;;
26253;SDS011;53339;51.378;0.094;2023-05-20T09:03:45;15.98;;;5.03;;
26253;SDS011;53339;51.378;0.094;2023-05-20T09:06:22;15.70;;;6.13;;
26253;SDS011;53339;51.378;0.094;2023-05-20T09:08:53;10.23;;;5.07;;
26253;SDS011;53339;51.378;0.094;2023-05-20T09:11:21;12.38;;;5.70;;
26253;SDS011;53339;51.378;0.094;2023-05-20T09:13:49;11.68;;;4.45;;
26253;SDS011;53339;51.378;0.094;2023-05-20T09:16:17;12.38;;;3.97;;
26253;SDS011;53339;51.378;0.094;2023-05-20T09:18:49;12.23;;;4.55;;
26253;SDS011;53339;51.378;0.094;2023-05-20T09:21:23;11.52;;;4.00;;
26253;SDS011;53339;51.378;0.094;2023-05-20T09:23:56;12.73;;;4.07;;
26253;SDS011;53339;51.378;0.094;2023-05-20T09:26:33;13.52;;;4.28;;
26253;SDS011;53339;51.378;0.094;2023-05-20T09:29:04;11.23;;;4.10;;
26253;SDS011;53339;51.378;0.094;2023-05-20T09:31:35;8.95;;;4.60;;
26253;SDS011;53339;51.378;0.094;2023-05-20T09:34:11;9.02;;;3.75;;
26253;SDS011;53339;51.378;0.094;2023-05-20T09:36:42;11.07;;;4.45;;
26253;SDS011;53339;51.378;0.094;2023-05-20T09:39:13;9.50;;;3.95;;
26253;SDS011;53339;51.378;0.094;2023-05-20T09:44:29;11.65;;;4.50;;
26253;SDS011;53339;51.378;0.094;2023-05-20T09:49:34;11.85;;;3.28;;
26253;SDS011;53339;51.378;0.094;2023-05-20T09:52:05;12.30;;;4.22;;
26253;SDS011;53339;51.378;0.094;2023-05-20T09:54:39;10.98;;;4.57;;
26253;SDS011;53339;51.378;0.094;2023-05-20T09:57:14;11.60;;;3.47;;
26253;SDS011;53339;51.378;0.094;2023-05-20T09:59:49;8.43;;;2.95;;
26253;SDS011;53339;51.378;0.094;2023-05-20T10:02:18;13.02;;;4.20;;
26253;SDS011;53339;51.378;0.094;2023-05-20T10:04:50;11.00;;;3.45;;
26253;SDS011;53339;51.378;0.094;2023-05-20T10:19:12;11.18;;;3.08;;
26253;SDS011;53339;51.378;0.094;2023-05-20T10:22:00;11.27;;;3.03;;
26253;SDS011;53339;51.378;0.094;2023-05-20T10:24:30;8.07;;;3.60;;
26253;SDS011;53339;51.378;0.094;2023-05-20T10:27:10;9.80;;;2.80;;
26253;SDS011;53339;51.378;0.094;2023-05-20T10:29:44;8.95;;;3.60;;
26253;SDS011;53339;51.378;0.094;2023-05-20T10:32:27;9.95;;;4.05;;
26253;SDS011;53339;51.378;0.094;2023-05-20T10:35:04;8.30;;;3.25;;
26253;SDS011;53339;51.378;0.094;2023-05-20T10:37:42;9.80;;;3.35;;
26253;SDS011;53339;51.378;0.094;2023-05-20T10:40:14;10.30;;;3.85;;
26253;SDS011;53339;51.378;0.094;2023-05-20T10:42:47;8.93;;;2.65;;
26253;SDS011;53339;51.378;0.094;2023-05-20T10:45:24;10.88;;;3.03;;
26253;SDS011;53339;51.378;0.094;2023-05-20T10:47:54;9.35;;;2.50;;
26253;SDS011;53339;51.378;0.094;2023-05-20T10:50:39;9.82;;;2.95;;
26253;SDS011;53339;51.378;0.094;2023-05-20T10:53:12;7.93;;;3.30;;
26253;SDS011;53339;51.378;0.094;2023-05-20T10:55:58;5.97;;;2.42;;
26253;SDS011;53339;51.378;0.094;2023-05-20T10:58:35;7.95;;;2.30;;
26253;SDS011;53339;51.378;0.094;2023-05-20T11:01:11;6.88;;;2.97;;
26253;SDS011;53339;51.378;0.094;2023-05-20T11:03:40;10.43;;;2.88;;
26253;SDS011;53339;51.378;0.094;2023-05-20T11:06:13;6.55;;;2.50;;
26253;SDS011;53339;51.378;0.094;2023-05-20T11:08:50;7.07;;;2.53;;
26253;SDS011;53339;51.378;0.094;2023-05-20T11:13:50;7.35;;;2.28;;
26253;SDS011;53339;51.378;0.094;2023-05-20T11:16:19;8.25;;;2.95;;
26253;SDS011;53339;51.378;0.094;2023-05-20T11:18:48;8.55;;;2.95;;
26253;SDS011;53339;51.378;0.094;2023-05-20T11:21:17;8.25;;;2.67;;
26253;SDS011;53339;51.378;0.094;2023-05-20T11:23:50;7.28;;;2.90;;
26253;SDS011;53339;51.378;0.094;2023-05-20T11:26:19;10.55;;;2.63;;
26253;SDS011;53339;51.378;0.094;2023-05-20T11:28:49;7.72;;;3.42;;
26253;SDS011;53339;51.378;0.094;2023-05-20T11:31:18;5.85;;;2.15;;
26253;SDS011;53339;51.378;0.094;2023-05-20T11:33:46;8.82;;;2.50;;
26253;SDS011;53339;51.378;0.094;2023-05-20T11:36:18;7.18;;;2.22;;
26253;SDS011;53339;51.378;0.094;2023-05-20T11:38:52;6.85;;;2.38;;
26253;SDS011;53339;51.378;0.094;2023-05-20T11:41:27;5.53;;;2.70;;
26253;SDS011;53339;51.378;0.094;2023-05-20T11:43:56;6.30;;;3.20;;
26253;SDS011;53339;51.378;0.094;2023-05-20T11:46:26;6.63;;;2.53;;
26253;SDS011;53339;51.378;0.094;2023-05-20T11:48:55;7.65;;;2.53;;
26253;SDS011;53339;51.378;0.094;2023-05-20T11:51:28;6.93;;;2.45;;
26253;SDS011;53339;51.378;0.094;2023-05-20T11:54:04;7.68;;;2.05;;
26253;SDS011;53339;51.378;0.094;2023-05-20T11:59:04;7.38;;;2.25;;
26253;SDS011;53339;51.378;0.094;2023-05-20T12:01:37;6.93;;;2.13;;
26253;SDS011;53339;51.378;0.094;2023-05-20T12:04:09;8.70;;;2.33;;
26253;SDS011;53339;51.378;0.094;2023-05-20T12:06:45;5.82;;;2.30;;
26253;SDS011;53339;51.378;0.094;2023-05-20T12:09:13;5.72;;;1.90;;
26253;SDS011;53339;51.378;0.094;2023-05-20T12:11:45;5.78;;;1.77;;
26253;SDS011;53339;51.378;0.094;2023-05-20T12:14:13;6.28;;;2.33;;
26253;SDS011;53339;51.378;0.094;2023-05-20T12:16:41;5.57;;;1.90;;
26253;SDS011;53339;51.378;0.094;2023-05-20T12:19:12;6.75;;;2.10;;
26253;SDS011;53339;51.378;0.094;2023-05-20T12:22:00;5.10;;;1.65;;
26253;SDS011;53339;51.378;0.094;2023-05-20T12:24:29;5.45;;;2.03;;
26253;SDS011;53339;51.378;0.094;2023-05-20T12:26:57;7.78;;;2.65;;
26253;SDS011;53339;51.378;0.094;2023-05-20T12:29:25;7.00;;;1.65;;
26253;SDS011;53339;51.378;0.094;2023-05-20T12:32:02;6.63;;;1.73;;
26253;SDS011;53339;51.378;0.094;2023-05-20T12:34:30;5.00;;;1.70;;
26253;SDS011;53339;51.378;0.094;2023-05-20T12:37:11;6.97;;;2.25;;
26253;SDS011;53339;51.378;0.094;2023-05-20T12:39:38;5.90;;;1.63;;
26253;SDS011;53339;51.378;0.094;2023-05-20T12:42:09;6.68;;;1.75;;
26253;SDS011;53339;51.378;0.094;2023-05-20T12:44:54;6.15;;;2.00;;
26253;SDS011;53339;51.378;0.094;2023-05-20T12:47:32;6.13;;;2.25;;
26253;SDS011;53339;51.378;0.094;2023-05-20T12:50:01;5.32;;;1.90;;
26253;SDS011;53339;51.378;0.094;2023-05-20T12:52:31;5.05;;;1.75;;
26253;SDS011;53339;51.378;0.094;2023-05-20T12:54:59;5.22;;;1.80;;
26253;SDS011;53339;51.378;0.094;2023-05-20T12:57:27;3.92;;;1.75;;
26253;SDS011;53339;51.378;0.094;2023-05-20T12:59:58;5.30;;;2.05;;
26253;SDS011;53339;51.378;0.094;2023-05-20T13:02:32;4.40;;;1.80;;
26253;SDS011;53339;51.378;0.094;2023-05-20T13:05:00;7.22;;;1.88;;
26253;SDS011;53339;51.378;0.094;2023-05-20T13:07:28;6.50;;;1.92;;
26253;SDS011;53339;51.378;0.094;2023-05-20T13:10:18;4.57;;;1.48;;
26253;SDS011;53339;51.378;0.094;2023-05-20T13:12:46;6.53;;;1.92;;
26253;SDS011;53339;51.378;0.094;2023-05-20T13:15:14;4.43;;;2.13;;
26253;SDS011;53339;51.378;0.094;2023-05-20T13:17:42;5.00;;;1.70;;
26253;SDS011;53339;51.378;0.094;2023-05-20T13:20:12;9.75;;;2.08;;
26253;SDS011;53339;51.378;0.094;2023-05-20T13:22:39;6.70;;;1.92;;
26253;SDS011;53339;51.378;0.094;2023-05-20T13:25:13;5.35;;;1.83;;
26253;SDS011;53339;51.378;0.094;2023-05-20T13:27:42;4.90;;;2.15;;
26253;SDS011;53339;51.378;0.094;2023-05-20T13:30:10;6.00;;;2.22;;
26253;SDS011;53339;51.378;0.094;2023-05-20T13:32:43;5.97;;;1.52;;
26253;SDS011;53339;51.378;0.094;2023-05-20T13:35:11;7.50;;;2.15;;
26253;SDS011;53339;51.378;0.094;2023-05-20T13:37:39;5.97;;;2.08;;
26253;SDS011;53339;51.378;0.094;2023-05-20T13:40:07;5.93;;;2.05;;
26253;SDS011;53339;51.378;0.094;2023-05-20T13:42:35;6.30;;;2.17;;
26253;SDS011;53339;51.378;0.094;2023-05-20T13:45:03;5.03;;;1.85;;
26253;SDS011;53339;51.378;0.094;2023-05-20T13:47:33;7.07;;;1.50;;
26253;SDS011;53339;51.378;0.094;2023-05-20T13:50:02;6.45;;;2.10;;
26253;SDS011;53339;51.378;0.094;2023-05-20T13:52:30;5.03;;;2.08;;
26253;SDS011;53339;51.378;0.094;2023-05-20T13:54:59;6.47;;;1.85;;
26253;SDS011;53339;51.378;0.094;2023-05-20T13:57:27;7.78;;;2.58;;
26253;SDS011;53339;51.378;0.094;2023-05-20T13:59:55;6.95;;;1.90;;
26253;SDS011;53339;51.378;0.094;2023-05-20T14:02:23;6.60;;;2.08;;
26253;SDS011;53339;51.378;0.094;2023-05-20T14:04:53;7.18;;;2.47;;
26253;SDS011;53339;51.378;0.094;2023-05-20T14:07:28;5.60;;;1.80;;
26253;SDS011;53339;51.378;0.094;2023-05-20T14:09:57;5.78;;;2.42;;
26253;SDS011;53339;51.378;0.094;2023-05-20T14:12:25;10.13;;;2.35;;
26253;SDS011;53339;51.378;0.094;2023-05-20T14:14:56;4.97;;;1.77;;
26253;SDS011;53339;51.378;0.094;2023-05-20T14:17:27;3.63;;;1.35;;
26253;SDS011;53339;51.378;0.094;2023-05-20T14:19:55;5.50;;;1.35;;
26253;SDS011;53339;51.378;0.094;2023-05-20T14:22:24;5.75;;;2.10;;
26253;SDS011;53339;51.378;0.094;2023-05-20T14:24:54;5.43;;;1.17;;
26253;SDS011;53339;51.378;0.094;2023-05-20T14:27:39;4.70;;;1.50;;
26253;SDS011;53339;51.378;0.094;2023-05-20T14:30:11;6.50;;;1.73;;
26253;SDS011;53339;51.378;0.094;2023-05-20T14:32:40;9.10;;;1.60;;
26253;SDS011;53339;51.378;0.094;2023-05-20T14:35:08;4.70;;;1.17;;
26253;SDS011;53339;51.378;0.094;2023-05-20T14:37:36;6.55;;;2.33;;
26253;SDS011;53339;51.378;0.094;2023-05-20T14:40:04;5.32;;;1.30;;
26253;SDS011;53339;51.378;0.094;2023-05-20T14:42:39;7.30;;;1.80;;
26253;SDS011;53339;51.378;0.094;2023-05-20T14:45:07;7.43;;;1.67;;
26253;SDS011;53339;51.378;0.094;2023-05-20T14:47:37;8.35;;;2.00;;
26253;SDS011;53339;51.378;0.094;2023-05-20T14:50:10;6.45;;;1.75;;
26253;SDS011;53339;51.378;0.094;2023-05-20T14:52:39;6.22;;;1.80;;
26253;SDS011;53339;51.378;0.094;2023-05-20T14:55:15;6.68;;;1.70;;
26253;SDS011;53339;51.378;0.094;2023-05-20T14:57:43;9.48;;;1.75;;
26253;SDS011;53339;51.378;0.094;2023-05-20T15:00:12;4.97;;;1.73;;
26253;SDS011;53339;51.378;0.094;2023-05-20T15:02:44;8.23;;;1.75;;
26253;SDS011;53339;51.378;0.094;2023-05-20T15:05:12;5.28;;;1.55;;
26253;SDS011;53339;51.378;0.094;2023-05-20T15:07:50;5.45;;;1.65;;
26253;SDS011;53339;51.378;0.094;2023-05-20T15:10:20;6.28;;;1.45;;
26253;SDS011;53339;51.378;0.094;2023-05-20T15:12:51;4.68;;;1.00;;
26253;SDS011;53339;51.378;0.094;2023-05-20T15:15:19;5.55;;;1.23;;
26253;SDS011;53339;51.378;0.094;2023-05-20T15:17:47;5.18;;;1.38;;
26253;SDS011;53339;51.378;0.094;2023-05-20T15:20:20;5.78;;;1.77;;
26253;SDS011;53339;51.378;0.094;2023-05-20T15:22:50;5.55;;;1.63;;
26253;SDS011;53339;51.378;0.094;2023-05-20T15:25:20;4.95;;;1.50;;
26253;SDS011;53339;51.378;0.094;2023-05-20T15:27:51;6.57;;;1.70;;